地図

経路データ

SID SEASON NUMBER BASIN SUBBASIN NAME ISO_TIME NATURE LAT LON WMO_WIND WMO_PRES WMO_AGENCY TRACK_TYPE DIST2LAND LANDFALL IFLAG USA_AGENCY USA_ATCF_ID USA_LAT USA_LON USA_RECORD USA_STATUS USA_WIND USA_PRES USA_SSHS USA_R34_NE USA_R34_SE USA_R34_SW USA_R34_NW USA_R50_NE USA_R50_SE USA_R50_SW USA_R50_NW USA_R64_NE USA_R64_SE USA_R64_SW USA_R64_NW USA_POCI USA_ROCI USA_RMW USA_EYE TOKYO_LAT TOKYO_LON TOKYO_GRADE TOKYO_WIND TOKYO_PRES TOKYO_R50_DIR TOKYO_R50_LONG TOKYO_R50_SHORT TOKYO_R30_DIR TOKYO_R30_LONG TOKYO_R30_SHORT TOKYO_LAND CMA_LAT CMA_LON CMA_CAT CMA_WIND CMA_PRES HKO_LAT HKO_LON HKO_CAT HKO_WIND HKO_PRES NEWDELHI_LAT NEWDELHI_LON NEWDELHI_GRADE NEWDELHI_WIND NEWDELHI_PRES NEWDELHI_CI NEWDELHI_DP NEWDELHI_POCI REUNION_LAT REUNION_LON REUNION_TYPE REUNION_WIND REUNION_PRES REUNION_TNUM REUNION_CI REUNION_RMW REUNION_R34_NE REUNION_R34_SE REUNION_R34_SW REUNION_R34_NW REUNION_R50_NE REUNION_R50_SE REUNION_R50_SW REUNION_R50_NW REUNION_R64_NE REUNION_R64_SE REUNION_R64_SW REUNION_R64_NW BOM_LAT BOM_LON BOM_TYPE BOM_WIND BOM_PRES BOM_TNUM BOM_CI BOM_RMW BOM_R34_NE BOM_R34_SE BOM_R34_SW BOM_R34_NW BOM_R50_NE BOM_R50_SE BOM_R50_SW BOM_R50_NW BOM_R64_NE BOM_R64_SE BOM_R64_SW BOM_R64_NW BOM_ROCI BOM_POCI BOM_EYE BOM_POS_METHOD BOM_PRES_METHOD NADI_LAT NADI_LON NADI_CAT NADI_WIND NADI_PRES WELLINGTON_LAT WELLINGTON_LON WELLINGTON_WIND WELLINGTON_PRES DS824_LAT DS824_LON DS824_STAGE DS824_WIND DS824_PRES TD9636_LAT TD9636_LON TD9636_STAGE TD9636_WIND TD9636_PRES TD9635_LAT TD9635_LON TD9635_WIND TD9635_PRES TD9635_ROCI NEUMANN_LAT NEUMANN_LON NEUMANN_CLASS NEUMANN_WIND NEUMANN_PRES MLC_LAT MLC_LON MLC_CLASS MLC_WIND MLC_PRES USA_GUST BOM_GUST BOM_GUST_PER REUNION_GUST REUNION_GUST_PER USA_SEAHGT USA_SEARAD_NE USA_SEARAD_SE USA_SEARAD_SW USA_SEARAD_NW STORM_SPEED STORM_DIR
1853264N20268 1853 12 NA GM NOT_NAMED 1853-09-20 12:00:00 TS 19.5000 -92.5000 main 100 100 _____________O -1 19.5000 -92.5000 TD 30 5 294
1853264N20268 1853 12 NA GM NOT_NAMED 1853-09-20 15:00:00 TS 19.6000 -92.7400 main 111 111 _____________P -1 19.6000 -92.7400 TD 30 5 293
1853264N20268 1853 12 NA GM NOT_NAMED 1853-09-20 18:00:00 TS 19.7000 -93.0000 main 127 127 _____________O -1 19.7000 -93.0000 TD 30 6 291
1853264N20268 1853 12 NA GM NOT_NAMED 1853-09-20 21:00:00 TS 19.8000 -93.2925 main 148 148 _____________P -1 19.8000 -93.2925 TD 30 6 289
1853264N20268 1853 12 NA GM NOT_NAMED 1853-09-21 00:00:00 TS 19.9000 -93.6000 main 173 173 _____________O -1 19.9000 -93.6000 TD 30 6 289
1853264N20268 1853 12 NA GM NOT_NAMED 1853-09-21 03:00:00 TS 20.0000 -93.9075 main 190 182 _____________P -1 20.0000 -93.9075 TD 30 6 290
1853264N20268 1853 12 NA GM NOT_NAMED 1853-09-21 06:00:00 TS 20.1000 -94.2000 main 187 182 _____________O -1 20.1000 -94.2000 TD 30 5 291
1853264N20268 1853 12 NA GM NOT_NAMED 1853-09-21 09:00:00 TS 20.1999 -94.4501 main 183 179 _____________P -1 20.1999 -94.4501 TD 32 5 293
1853264N20268 1853 12 NA GM NOT_NAMED 1853-09-21 12:00:00 TS 20.3000 -94.7000 main 183 156 _____________O -1 20.3000 -94.7000 TS 35 5 291
1853264N20268 1853 12 NA GM NOT_NAMED 1853-09-21 15:00:00 TS 20.3925 -94.9926 main 156 132 _____________P -1 20.3925 -94.9926 TS 37 6 290
1853264N20268 1853 12 NA GM NOT_NAMED 1853-09-21 18:00:00 TS 20.5000 -95.3000 main 132 114 _____________O -1 20.5000 -95.3000 TS 40 6 294
1853264N20268 1853 12 NA GM NOT_NAMED 1853-09-21 21:00:00 TS 20.6499 -95.6000 main 114 106 _____________P -1 20.6499 -95.6000 TS 42 6 298
1853264N20268 1853 12 NA GM NOT_NAMED 1853-09-22 00:00:00 TS 20.8000 -95.9000 main 106 91 _____________O -1 20.8000 -95.9000 TS 45 6 294
1853264N20268 1853 12 NA GM NOT_NAMED 1853-09-22 03:00:00 TS 20.8999 -96.2001 main 91 76 _____________P -1 20.8999 -96.2001 TS 45 6 290
1853264N20268 1853 12 NA GM NOT_NAMED 1853-09-22 06:00:00 TS 21.0000 -96.5000 main 76 56 _____________O -1 21.0000 -96.5000 TS 45 6 294
1853264N20268 1853 12 NA GM NOT_NAMED 1853-09-22 09:00:00 TS 21.1499 -96.8000 main 56 31 _____________P -1 21.1499 -96.8000 TS 45 6 298
1853264N20268 1853 12 NA GM NOT_NAMED 1853-09-22 12:00:00 TS 21.3000 -97.1000 main 31 0 _____________O -1 21.3000 -97.1000 TS 45 6 294
1853264N20268 1853 12 NA GM NOT_NAMED 1853-09-22 15:00:00 TS 21.3999 -97.4001 main 0 0 _____________P -1 21.3999 -97.4001 TS 45 6 290
1853264N20268 1853 12 NA NA NOT_NAMED 1853-09-22 18:00:00 TS 21.5000 -97.7000 main 0 0 _____________O -1 21.5000 -97.7000 TS 45 6 293
1853264N20268 1853 12 NA NA NOT_NAMED 1853-09-22 21:00:00 TS 21.6376 -97.9998 main 0 0 _____________P -1 21.6376 -97.9998 TS 37 6 298
1853264N20268 1853 12 NA NA NOT_NAMED 1853-09-23 00:00:00 TS 21.8000 -98.3000 main 0 _____________O -1 21.8000 -98.3000 TD 30 6 300

IBTrACS Databaseについて

本データベースは、米国NOAAが公開する1842年以降の世界の熱帯低気圧のベストトラックデータアーカイブInternational Best Track Archive for Climate Stewardship (IBTrACS)を、ウェブで閲覧しやすい形式に変換したものです。

最終更新日:2021-12-06